Portada
METAR-TAF:

METAR-TAF

Aeroports :

Sherbrooke, Quebec, Canadà

latitud: 45-24N, longitud: 071-53W, altitud: 170 m

Observació

L'informe es va fer fa 59 minuts, a les 23:00 UTC
Vent 8 kt del Sud
Temperatura 17°C
Humitat 77%
Pressió 1015 hPa
Visibilitat: 14.5 km
Cel clar

METAR: CYSC 232300Z AUTO 19008KT 9SM CLR 17/13 A2996 RMK SLP150 DENSITY ALT 1100FT

Hora: 19:59 (23:59 UTC)

Pronòstic

L'informe es va fer fa 21 minuts, a les 23:38 UTC
Pronòstic vàlid del 24 a les 00 UTC al 24 a les 03 UTC
Vent 8 kt del Sud
Visibilitat: 10 km
Escasses núvols a una alçada de 8000 ft

TAF: CYSC 232338Z 2400/2403 19008KT P6SM FEW080 RMK FCST BASED ON AUTO OBS. NXT FCST WILL BE ISSUED AT 241045Z

Observacions i pronòstics meteorològics de més de 4000 aeroports (METAR i TAF).

Les estacions disponibles són els punts grocs i vermells al mapa.

Posi el ratolí al punt desitjat per veure el nom de l'estació.

Feu clic per veure les observacions i els pronòstics meteorològics.

Per canviar el mapa: feu clic els botons verds amb una creu de color negre per apropar; al botó verd amb un guió per allunyar la imatge; o en les fletxes verdes per a mapes adjacents.


METAR-TAF: